ADDS METAR Data INFO
IDs: Format: Raw Decoded Include TAF

Data at: 1531 UTC 25 Feb 2018

KMLI 251452Z 26015G23KT 10SM CLR 01/M06 A2992 RMK AO2 SLP135 T00111056 $
KMLI 251352Z 25014KT 10SM FEW023 00/M03 A2988 RMK AO2 SLP125 T00001033 $
KMLI 251302Z 27011KT 10SM CLR M01/M04 A2986 RMK AO2 T10061044 $
KMLI 251252Z AUTO 27014G21KT 10SM M01/M04 A2986 RMK AO2 SLP116 T10061044 $
KMLI 251152Z 27011KT 10SM BKN023 BKN030 01/M03 A2983 RMK AO2 SLP105 70030 T00061028 10017 20006 53027
KMLI 251052Z AUTO 26017G24KT 10SM OVC025 01/M03 A2979 RMK AO2 PK WND 25026/1016 SLP092 T00111028
KMLI 250952Z AUTO 26021KT 10SM OVC022 01/M02 A2977 RMK AO2 PK WND 25028/0919 SLP085 T00111022
KMLI 250852Z AUTO 25014G23KT 10SM OVC025 01/M02 A2974 RMK AO2 PK WND 27028/0826 SLP077 T00111022 51032
KMLI 250822Z AUTO 25017G25KT 10SM BKN027 OVC034 01/M02 A2973 RMK AO2 T00111022
KMLI 250800Z AUTO 26014G26KT 10SM SCT023 OVC036 01/M03 A2972 RMK AO2 T00111028
KMLI 250752Z AUTO 25019G26KT 10SM BKN023 OVC036 01/M03 A2972 RMK AO2 PK WND 26032/0732 SLP068 T00111028
KMLI 250652Z AUTO 27025G42KT 10SM OVC021 01/M02 A2969 RMK AO2 PK WND 27042/0646 SLP059 T00111022
KMLI 250600Z AUTO 27019G27KT 10SM OVC017 02/M01 A2966 RMK AO2 T00171006
KMLI 250552Z AUTO 27019G27KT 10SM BKN014 OVC021 02/M01 A2965 RMK AO2 PK WND 27037/0507 SLP044 60024 T00171006 10067 20017 400671011 53031
KMLI 250452Z AUTO 27025G34KT 10SM OVC014 03/01 A2960 RMK AO2 PK WND 28034/0452 RAE13 SLP029 P0001 T00280006
KMLI 250414Z AUTO 27022G32KT 10SM BKN012 OVC018 04/02 A2958 RMK AO2 PK WND 27032/0411 RAE13 P0001 T00390022
KMLI 250404Z AUTO 27021G30KT 10SM -RA SCT012 BKN018 OVC050 04/03 A2958 RMK AO2 PK WND 27030/0401 PRESRR P0001 T00440028
KMLI 250352Z AUTO 28019G24KT 8SM -RA FEW012 OVC046 05/04 A2956 RMK AO2 SLP015 P0007 T00500039
KMLI 250339Z AUTO 27015G21KT 5SM -RA BR FEW008 FEW013 OVC037 05/04 A2956 RMK AO2 P0006 T00500039
KMLI 250332Z 27015G25KT 4SM -RA BR FEW008 BKN028 OVC037 05/04 A2956 RMK AO2 P0006 T00500044
KMLI 250258Z 25017G20KT 4SM -RA BR SCT003 BKN010 OVC019 07/06 A2956 RMK AO2 P0000 T00670061
KMLI 250252Z 25011KT 3SM -RA BR BKN003 BKN008 OVC036 07/06 A2955 RMK AO2 RAE34B38 SLP011 P0006 60016 T00670061 55002
KMLI 250247Z 26020G25KT 2 1/2SM -RA BR BKN003 OVC023 07/06 A2955 RMK AO2 RAE34B38 P0005
KMLI 250240Z 26020G25KT 3SM RA BR OVC003 07/06 A2955 RMK AO2 RAE34B38 PRESRR P0003 T00670056
KMLI 250235Z 4SM BR OVC003 06/06 A2953 RMK AO2 RAE34 P0002 T00610061
KMLI 250224Z 14004KT 2SM -RA BR OVC002 06/06 A2951 RMK AO2 P0002 T00610061
KMLI 250217Z 14004KT 1SM R09/3500VP6000FT -RA BR OVC002 06/06 A2951 RMK AO2 P0002 T00610061
KMLI 250203Z 14003KT 3/4SM R09/5500VP6000FT -RA BR OVC003 07/07 A2953 RMK AO2 P0000 T00670067
KMLI 250152Z 11007KT 2 1/2SM -RA BR OVC003 06/06 A2953 RMK AO2 RAE21B45 SLP004 P0002 T00610061
KMLI 250126Z 11005KT 7SM OVC004 07/06 A2954 RMK AO2 RAE21 P0002 T00670061
KMLI 250105Z 11007KT 7SM -RA OVC005 07/06 A2955 RMK AO2 P0001 T00670061
KMLI 250052Z 11008KT 4SM -RA BR OVC003 06/06 A2956 RMK AO2 CIG 003V006 SLP014 P0008 T00610061
KMLI 250023Z 10007KT 2SM -RA BR OVC004 06/06 A2958 RMK AO2 P0001 T00610056
KMLI 242352Z 11011KT 2SM -RA BR OVC005 06/06 A2961 RMK AO2 RAB41 SLP031 P0001 60004 T00560056 10056 20028 58048
KMLI 242340Z 11011KT 1SM R09/P6000FT BR OVC005 06/06 A2962 RMK AO2 SFC VIS 2 1/2 T00560056
KMLI 242324Z 11010KT 1SM R09/P6000FT BR OVC004 06/06 A2964 RMK AO2 SFC VIS 1 1/4 T00560056
KMLI 242252Z 11015KT 1SM R09/P6000FT BR OVC005 06/04 A2966 RMK AO2 SLP049 T00560044
KMLI 242240Z 12016G23KT 2SM BR OVC006 06/04 A2967 RMK AO2 PRESFR T00560044
KMLI 242152Z 12012KT 7SM OVC006 05/04 A2973 RMK AO2 RAE20 SLP072 P0000 T00500039
KMLI 242052Z 11016KT 5SM -RA BR OVC006 04/03 A2976 RMK AO2 SLP081 P0002 60003 T00390033 58066
KMLI 242036Z 09012KT 5SM -RA BR OVC006 03/03 A2977 RMK AO2 PRESFR P0002 T00330028
KMLI 241950Z 10012KT 1SM R09/4500VP6000FT -RA BR OVC006 03/02 A2983 RMK AO2 SFC VIS 1 1/4 SLP107 P0001 T00330022
KMLI 241949Z 09013KT 1SM R09/4500VP6000FT -RA BR OVC006 03/02 A2983 RMK AO2 SFC VIS 1 1/4 P0001
KMLI 241943Z 09014KT 2SM R09/5500VP6000FT -RA BR OVC006 03/02 A2983 RMK AO2 P0001 T00330022
KMLI 241908Z 09012KT 1 1/2SM R09/6000VP6000FT -RA BR OVC007 03/02 A2987 RMK AO2 TWR VIS 2 CIG 004V009 PRESFR P0000 T00280022
KMLI 241852Z 09015KT 2SM -RA BR OVC008 03/02 A2989 RMK AO2 CIG 006V011 PRESFR SLP128 P0000 T00280017
KMLI 241752Z 09016KT 2SM -RA BR OVC009 03/01 A2995 RMK AO2 SLP149 P0000 60002 T00280011 10028 20000 58044
KMLI 241703Z 09017KT 4SM -RA BR OVC009 02/01 A2999 RMK AO2 PRESFR P0000 T00220011
KMLI 241652Z 09016KT 4SM -RA BR OVC010 02/01 A3000 RMK AO2 RAB23 CIG 008V013 SLP166 P0001 T00220011
KMLI 241552Z 08013KT 3SM BR BKN012 OVC055 02/01 A3007 RMK AO2 SLP187 P0001 T00220006
KMLI 241513Z 09013KT 5SM BR BKN011 OVC065 02/M01 A3008 RMK AO2 T00171006
KMLI 241452Z 09011KT 4SM BR FEW011 OVC065 01/00 A3009 RMK AO2 UPE02B29E47RAB31E42 SLP194 P0000 60000 T00110000 56017
KMLI 241412Z 08011KT 5SM BR SCT012 SCT017 OVC080 01/M01 A3010 RMK AO2 UPE02 P0000 T00061011
KMLI 241352Z 09012KT 4SM UP BR BKN014 OVC018 01/M02 A3011 RMK AO2 UPE1254B44 SLP203 P0000 T00061017
KMLI 241313Z 08009KT 7SM BR BKN014 OVC065 01/M02 A3012 RMK AO2 UPE1254 P0000 T00061017
KMLI 241252Z 07015KT 7SM UP BKN070 OVC085 00/M02 A3011 RMK AO2 UPB50 SLP203 P0000 T00001022
KMLI 241152Z 06008KT 9SM OVC060 00/M03 A3014 RMK AO2 SLP212 T00001028 10000 21011 56016
KMLI 241052Z AUTO 06008KT 9SM OVC065 M01/M03 A3015 RMK AO2 SLP214 T10061033
KMLI 240952Z AUTO 06008KT 8SM FEW070 OVC090 M01/M04 A3015 RMK AO2 SLP215 T10111039
KMLI 240852Z AUTO 06008KT 8SM CLR M01/M04 A3019 RMK AO2 SLP227 T10111039 56026
KMLI 240752Z AUTO 02006KT 9SM CLR M01/M04 A3021 RMK AO2 SLP236 T10111039
KMLI 240652Z AUTO 01005KT 9SM CLR M01/M03 A3023 RMK AO2 SLP241 T10111033
KMLI 240552Z AUTO 34003KT 9SM CLR M01/M03 A3026 RMK AO2 SLP253 T10111033 10022 21011 400561011 58009
KMLI 240452Z AUTO 00000KT 8SM CLR M01/M03 A3028 RMK AO2 SLP261 T10061028
KMLI 240352Z 29003KT 9SM CLR M01/M03 A3029 RMK AO2 SLP263 T10061028